createdAt,value
2022-12-24T00:02:11.800Z,15.23
2022-12-24T00:04:38.924Z,13.68
2022-12-24T00:07:06.123Z,14.20
2022-12-24T00:09:33.278Z,12.18
2022-12-24T00:12:00.445Z,46.03
2022-12-24T00:14:27.749Z,19.38
2022-12-24T00:16:54.928Z,14.60
2022-12-24T00:19:22.110Z,24.95
2022-12-24T00:21:49.100Z,24.00
2022-12-24T00:24:16.272Z,31.85
2022-12-24T00:26:43.386Z,30.90
2022-12-24T00:29:11.423Z,21.10
2022-12-24T00:31:38.469Z,18.02
2022-12-24T00:34:05.626Z,16.02
2022-12-24T00:36:32.696Z,14.02
2022-12-24T00:38:59.755Z,13.63
2022-12-24T00:41:29.544Z,15.77
2022-12-24T00:43:56.708Z,15.27
2022-12-24T00:46:24.713Z,15.32
2022-12-24T00:48:52.112Z,12.65
2022-12-24T00:51:19.821Z,17.60
2022-12-24T00:53:47.033Z,14.07
2022-12-24T00:56:14.248Z,13.60
2022-12-24T00:58:41.438Z,12.57
2022-12-24T01:01:08.760Z,21.85
2022-12-24T01:03:35.963Z,17.10
2022-12-24T01:06:04.522Z,15.55
2022-12-24T01:08:31.872Z,14.88
2022-12-24T01:10:59.238Z,11.90
2022-12-24T01:13:26.437Z,12.23
2022-12-24T01:15:53.822Z,13.07
2022-12-24T01:18:21.201Z,14.25
2022-12-24T01:20:56.358Z,13.63
2022-12-24T01:23:23.497Z,11.80
2022-12-24T01:25:50.587Z,10.55
2022-12-24T01:28:17.708Z,9.25
2022-12-24T01:30:45.277Z,10.93
2022-12-24T01:33:12.662Z,11.55
2022-12-24T01:35:40.675Z,10.00
2022-12-24T01:38:07.901Z,7.25
2022-12-24T01:40:53.440Z,10.43
2022-12-24T01:43:25.473Z,7.38
2022-12-24T01:45:56.811Z,11.95
2022-12-24T01:48:38.331Z,9.32
2022-12-24T01:51:08.386Z,8.48
2022-12-24T01:53:37.346Z,10.93
2022-12-24T01:56:05.437Z,8.50
2022-12-24T01:58:33.413Z,8.82
2022-12-24T02:01:00.519Z,8.23
2022-12-24T02:03:27.845Z,8.93
2022-12-24T02:05:57.228Z,9.75
2022-12-24T02:08:24.364Z,7.57
2022-12-24T02:10:51.490Z,10.88
2022-12-24T02:13:20.707Z,9.18
2022-12-24T02:15:59.845Z,9.40
2022-12-24T02:18:31.465Z,7.85
2022-12-24T02:21:17.273Z,8.38
2022-12-24T02:23:56.674Z,7.95
2022-12-24T02:26:34.029Z,8.82
2022-12-24T02:29:19.898Z,8.05
2022-12-24T02:31:59.529Z,7.97
2022-12-24T02:34:40.453Z,7.05
2022-12-24T02:37:28.352Z,8.68
2022-12-24T02:40:06.899Z,8.43
2022-12-24T02:42:40.312Z,7.60
2022-12-24T02:45:28.716Z,11.55
2022-12-24T02:47:56.445Z,9.30
2022-12-24T02:50:24.186Z,9.32
2022-12-24T02:52:51.796Z,10.18
2022-12-24T02:55:32.616Z,6.78
2022-12-24T02:58:11.147Z,7.20
2022-12-24T03:00:54.361Z,7.18
2022-12-24T03:03:30.268Z,8.13
2022-12-24T03:06:04.994Z,8.68
2022-12-24T03:08:50.904Z,6.20
2022-12-24T03:11:18.605Z,8.75
2022-12-24T03:13:45.969Z,9.25
2022-12-24T03:16:18.144Z,12.32
2022-12-24T03:18:47.882Z,12.57
2022-12-24T03:21:26.648Z,14.20
2022-12-24T03:23:54.149Z,16.92
2022-12-24T03:26:21.834Z,17.70
2022-12-24T03:28:49.295Z,16.83
2022-12-24T03:31:16.992Z,22.50
2022-12-24T03:33:44.074Z,20.73
2022-12-24T03:36:11.582Z,13.35
2022-12-24T03:38:38.806Z,9.27
2022-12-24T03:41:06.554Z,11.10
2022-12-24T03:43:33.616Z,14.73
2022-12-24T03:46:04.103Z,19.25
2022-12-24T03:48:32.867Z,15.40
2022-12-24T03:51:00.234Z,19.45
2022-12-24T03:53:27.309Z,15.18
2022-12-24T03:55:54.452Z,17.02
2022-12-24T03:58:21.649Z,14.48
2022-12-24T04:00:48.903Z,13.38
2022-12-24T04:03:16.119Z,15.43
2022-12-24T04:05:43.289Z,14.18
2022-12-24T04:08:10.645Z,13.10
2022-12-24T04:10:37.739Z,18.60
2022-12-24T04:13:04.881Z,12.15
2022-12-24T04:15:32.051Z,9.00
2022-12-24T04:17:59.155Z,13.10
2022-12-24T04:20:26.282Z,8.07
2022-12-24T04:22:54.259Z,7.00
2022-12-24T04:25:21.314Z,7.80
2022-12-24T04:27:48.413Z,8.10
2022-12-24T04:30:15.596Z,9.32
2022-12-24T04:32:42.773Z,8.85
2022-12-24T04:35:10.255Z,6.40
2022-12-24T04:37:37.292Z,12.48
2022-12-24T04:40:04.852Z,9.88
2022-12-24T04:42:31.930Z,7.88
2022-12-24T04:44:59.080Z,6.82
2022-12-24T04:47:26.395Z,8.52
2022-12-24T04:49:53.666Z,7.55
2022-12-24T04:52:20.814Z,8.10
2022-12-24T04:54:47.976Z,6.38
2022-12-24T04:57:15.146Z,4.95
2022-12-24T04:59:42.426Z,6.20
2022-12-24T05:02:09.709Z,9.00
2022-12-24T05:04:36.999Z,6.28
2022-12-24T05:07:04.301Z,6.35
2022-12-24T05:09:31.526Z,6.18
2022-12-24T05:11:58.775Z,7.78
2022-12-24T05:14:25.983Z,7.10
2022-12-24T05:16:53.082Z,6.43
2022-12-24T05:19:20.227Z,9.35
2022-12-24T05:22:07.293Z,9.98
2022-12-24T05:24:53.920Z,13.75
2022-12-24T05:27:21.219Z,21.50
2022-12-24T05:29:48.367Z,52.28
2022-12-24T05:32:15.468Z,57.15
2022-12-24T05:34:42.736Z,98.68
2022-12-24T05:37:10.974Z,181.60
2022-12-24T05:39:38.123Z,168.15
2022-12-24T05:42:05.299Z,149.40
2022-12-24T05:44:32.525Z,105.38
2022-12-24T05:46:59.829Z,41.13
2022-12-24T05:49:27.138Z,29.83
2022-12-24T05:51:54.280Z,35.85
2022-12-24T05:54:21.370Z,40.70
2022-12-24T05:56:48.589Z,29.55
2022-12-24T05:59:15.840Z,15.02
2022-12-24T06:01:47.394Z,18.30
2022-12-24T06:04:14.787Z,15.48
2022-12-24T06:06:42.083Z,13.32
2022-12-24T06:09:09.259Z,11.68
2022-12-24T06:11:36.290Z,9.57
2022-12-24T06:14:03.392Z,8.82
2022-12-24T06:16:30.623Z,10.65
2022-12-24T06:18:57.818Z,9.85
2022-12-24T06:21:24.929Z,16.08
2022-12-24T06:23:52.089Z,12.15
2022-12-24T06:26:20.733Z,13.57
2022-12-24T06:28:48.254Z,9.10
2022-12-24T06:31:16.855Z,11.20
2022-12-24T06:33:44.213Z,7.38
2022-12-24T06:36:17.782Z,8.38
2022-12-24T06:38:45.936Z,7.22
2022-12-24T06:41:13.473Z,6.97
2022-12-24T06:43:43.716Z,10.05
2022-12-24T06:46:12.448Z,6.88
2022-12-24T06:48:39.914Z,7.07
2022-12-24T06:51:07.110Z,8.55
2022-12-24T06:53:34.448Z,9.27
2022-12-24T06:56:19.917Z,7.68
2022-12-24T06:58:47.163Z,8.25
2022-12-24T07:01:16.399Z,10.27
2022-12-24T07:03:43.919Z,6.18
2022-12-24T07:06:16.745Z,6.70
2022-12-24T07:08:43.858Z,7.47
2022-12-24T07:11:11.278Z,9.40
2022-12-24T07:13:38.497Z,7.90
2022-12-24T07:16:06.104Z,8.55
2022-12-24T07:18:33.620Z,11.50
2022-12-24T07:21:01.575Z,8.05
2022-12-24T07:23:28.802Z,10.32
2022-12-24T07:25:55.851Z,13.13
2022-12-24T07:28:27.806Z,29.00
2022-12-24T07:30:56.180Z,22.70
2022-12-24T07:33:23.636Z,22.67
2022-12-24T07:35:57.693Z,30.75
2022-12-24T07:38:25.957Z,32.00
2022-12-24T07:40:53.125Z,34.75
2022-12-24T07:43:20.356Z,32.10
2022-12-24T07:45:47.525Z,38.50
2022-12-24T07:48:14.674Z,32.65
2022-12-24T07:50:42.109Z,29.45
2022-12-24T07:53:09.225Z,23.83
2022-12-24T07:55:36.591Z,30.90
2022-12-24T07:58:03.714Z,33.90
2022-12-24T08:00:30.799Z,21.55
2022-12-24T08:03:00.373Z,22.33
2022-12-24T08:05:28.040Z,14.32
2022-12-24T08:07:55.613Z,14.68
2022-12-24T08:10:23.009Z,11.90
2022-12-24T08:12:50.430Z,17.77
2022-12-24T08:15:17.879Z,19.55
2022-12-24T08:17:45.446Z,13.85
2022-12-24T08:20:12.587Z,11.93
2022-12-24T08:22:39.652Z,11.52
2022-12-24T08:25:07.082Z,12.63
2022-12-24T08:27:34.279Z,11.43
2022-12-24T08:30:01.501Z,11.95
2022-12-24T08:32:28.671Z,17.98
2022-12-24T08:34:55.780Z,21.00
2022-12-24T08:37:23.038Z,24.60
2022-12-24T08:39:50.163Z,19.98
2022-12-24T08:42:17.449Z,18.58
2022-12-24T08:44:44.696Z,16.85
2022-12-24T08:47:11.820Z,14.02
2022-12-24T08:49:40.114Z,16.35
2022-12-24T08:52:07.190Z,15.75
2022-12-24T08:54:34.383Z,12.75
2022-12-24T08:57:01.535Z,17.45
2022-12-24T08:59:28.741Z,17.38
2022-12-24T09:01:56.119Z,13.90
2022-12-24T09:04:23.432Z,18.95
2022-12-24T09:06:50.618Z,33.85
2022-12-24T09:09:17.818Z,19.73
2022-12-24T09:11:45.597Z,21.50
2022-12-24T09:14:12.722Z,28.73
2022-12-24T09:16:39.867Z,24.63
2022-12-24T09:19:07.010Z,20.83
2022-12-24T09:21:34.153Z,24.60
2022-12-24T09:24:01.578Z,23.30
2022-12-24T09:26:30.301Z,20.20
2022-12-24T09:28:57.878Z,19.73
2022-12-24T09:31:25.713Z,15.93
2022-12-24T09:33:53.385Z,12.32
2022-12-24T09:36:21.146Z,12.68
2022-12-24T09:38:48.626Z,13.93
2022-12-24T09:41:36.737Z,15.80
2022-12-24T09:44:16.040Z,17.10
2022-12-24T09:46:45.709Z,14.73
2022-12-24T09:49:19.014Z,15.55
2022-12-24T09:51:55.596Z,10.98
2022-12-24T09:54:22.780Z,11.35
2022-12-24T09:56:50.138Z,14.18
2022-12-24T09:59:20.241Z,10.55
2022-12-24T10:01:47.696Z,16.60
2022-12-24T10:04:16.359Z,12.35
2022-12-24T10:06:50.470Z,15.60
2022-12-24T10:09:44.026Z,12.73
2022-12-24T10:12:11.161Z,13.27
2022-12-24T10:14:40.891Z,13.75
2022-12-24T10:17:08.166Z,15.13
2022-12-24T10:19:44.685Z,11.32
2022-12-24T10:22:30.310Z,17.23
2022-12-24T10:25:06.633Z,15.10
2022-12-24T10:27:36.472Z,16.27
2022-12-24T10:30:10.445Z,17.88
2022-12-24T10:32:40.974Z,25.65
2022-12-24T10:35:14.295Z,15.68
2022-12-24T10:37:42.816Z,15.63
2022-12-24T10:40:15.326Z,16.45
2022-12-24T10:42:51.100Z,10.15
2022-12-24T10:45:22.402Z,12.15
2022-12-24T10:47:51.477Z,8.98
2022-12-24T10:50:40.516Z,10.48
2022-12-24T10:53:25.032Z,12.07
2022-12-24T10:56:01.020Z,17.80
2022-12-24T10:58:28.555Z,21.05
2022-12-24T11:00:55.845Z,24.58
2022-12-24T11:03:24.973Z,22.73
2022-12-24T11:06:12.418Z,21.55
2022-12-24T11:08:41.553Z,42.10
2022-12-24T11:11:16.866Z,37.55
2022-12-24T11:13:53.893Z,31.05
2022-12-24T11:16:23.987Z,33.17
2022-12-24T11:18:52.697Z,32.83
2022-12-24T11:21:25.013Z,41.78
2022-12-24T11:23:54.013Z,39.08
2022-12-24T11:26:25.598Z,26.30
2022-12-24T11:29:11.800Z,36.53
2022-12-24T11:31:39.169Z,32.70
2022-12-24T11:34:25.090Z,34.33
2022-12-24T11:39:20.926Z,35.92
2022-12-24T11:41:48.425Z,31.92
2022-12-24T11:44:15.576Z,33.13
2022-12-24T11:46:46.683Z,36.17
2022-12-24T11:49:24.067Z,28.65
2022-12-24T11:52:09.961Z,28.65
2022-12-24T11:54:55.935Z,35.90
2022-12-24T11:59:50.615Z,22.52
2022-12-24T12:02:37.179Z,31.25
2022-12-24T12:05:13.692Z,28.77
2022-12-24T12:07:41.173Z,25.63
2022-12-24T12:10:16.344Z,33.08
2022-12-24T12:12:44.867Z,24.63
2022-12-24T12:15:12.042Z,31.27
2022-12-24T12:17:50.478Z,29.20
2022-12-24T12:20:26.802Z,22.90
2022-12-24T12:23:00.122Z,26.25
2022-12-24T12:25:47.457Z,24.42
2022-12-24T12:28:26.756Z,16.58
2022-12-24T12:31:16.713Z,20.35
2022-12-24T12:34:04.185Z,18.95
2022-12-24T12:36:36.868Z,21.27
2022-12-24T12:39:03.989Z,27.02
2022-12-24T12:41:31.125Z,27.20
2022-12-24T12:44:13.327Z,21.75
2022-12-24T12:46:46.500Z,21.80
2022-12-24T12:49:30.375Z,22.73
2022-12-24T12:52:17.314Z,13.02
2022-12-24T12:54:44.347Z,16.73
2022-12-24T12:57:13.909Z,14.75
2022-12-24T12:59:44.934Z,9.68
2022-12-24T13:02:12.207Z,14.82
2022-12-24T13:04:45.211Z,17.02
2022-12-24T13:07:12.391Z,25.25
2022-12-24T13:09:42.245Z,15.35
2022-12-24T13:12:20.544Z,17.95
2022-12-24T13:15:06.449Z,26.17
2022-12-24T13:17:33.580Z,14.73
2022-12-24T13:20:12.861Z,9.73
2022-12-24T13:22:40.058Z,10.80
2022-12-24T13:25:08.852Z,15.63
2022-12-24T13:27:36.091Z,15.15
2022-12-24T13:30:10.106Z,13.57
2022-12-24T13:32:39.045Z,11.13
2022-12-24T13:35:21.270Z,12.50
2022-12-24T13:37:49.176Z,12.55
2022-12-24T13:40:16.282Z,17.02
2022-12-24T13:42:46.996Z,16.33
2022-12-24T13:45:29.504Z,17.55
2022-12-24T13:47:59.704Z,13.13
2022-12-24T13:50:29.791Z,17.65
2022-12-24T13:52:56.966Z,26.15
2022-12-24T13:55:24.123Z,27.17
2022-12-24T13:58:01.766Z,25.25
2022-12-24T14:00:34.359Z,26.83
2022-12-24T14:03:27.922Z,26.52
2022-12-24T14:05:59.600Z,24.85
2022-12-24T14:08:56.171Z,29.80
2022-12-24T14:13:51.812Z,30.75
2022-12-24T14:16:19.987Z,27.98
2022-12-24T14:19:03.399Z,30.25
2022-12-24T14:21:33.397Z,39.75
2022-12-24T14:24:03.420Z,41.90
2022-12-24T14:26:32.381Z,31.27
2022-12-24T14:29:04.981Z,30.67
2022-12-24T14:31:32.170Z,40.28
2022-12-24T14:34:09.441Z,35.00
2022-12-24T14:36:37.673Z,38.63
2022-12-24T14:39:06.305Z,40.13
2022-12-24T14:41:34.253Z,42.42
2022-12-24T14:44:07.505Z,54.15
2022-12-24T14:46:37.978Z,60.28
2022-12-24T14:49:12.280Z,62.67
2022-12-24T14:51:43.399Z,70.15
2022-12-24T14:54:25.859Z,58.25
2022-12-24T14:57:11.557Z,63.67
2022-12-24T14:59:52.392Z,60.83
2022-12-24T15:02:25.833Z,63.53
2022-12-24T15:05:11.923Z,56.15
2022-12-24T15:07:47.509Z,62.58
2022-12-24T15:10:38.003Z,54.45
2022-12-24T15:13:06.773Z,50.85
2022-12-24T15:15:34.553Z,57.92
2022-12-24T15:18:03.281Z,49.42
2022-12-24T15:20:31.102Z,59.47
2022-12-24T15:22:59.383Z,51.67
2022-12-24T15:25:28.164Z,44.08
2022-12-24T15:27:55.862Z,45.67
2022-12-24T15:30:24.903Z,47.25
2022-12-24T15:32:53.498Z,51.80
2022-12-24T15:35:44.835Z,43.05
2022-12-24T15:38:32.220Z,53.80
2022-12-24T15:41:00.008Z,55.33
2022-12-24T15:43:27.775Z,53.60
2022-12-24T15:45:55.297Z,48.70
2022-12-24T15:48:27.470Z,60.25
2022-12-24T15:50:58.929Z,53.22
2022-12-24T15:53:26.137Z,47.22
2022-12-24T15:56:05.477Z,49.78
2022-12-24T15:58:35.314Z,43.33
2022-12-24T16:01:02.489Z,53.35
2022-12-24T16:03:30.084Z,65.00
2022-12-24T16:06:11.555Z,76.05
2022-12-24T16:08:41.577Z,77.65
2022-12-24T16:11:16.256Z,73.45
2022-12-24T16:14:03.639Z,62.88
2022-12-24T16:16:49.844Z,71.63
2022-12-24T16:19:28.299Z,68.95
2022-12-24T16:21:56.977Z,67.43
2022-12-24T16:24:31.116Z,59.15
2022-12-24T16:26:58.408Z,57.85
2022-12-24T16:29:27.854Z,49.20
2022-12-24T16:31:56.744Z,56.00
2022-12-24T16:34:25.543Z,48.97
2022-12-24T16:36:52.661Z,52.90
2022-12-24T16:39:24.435Z,51.65
2022-12-24T16:42:10.657Z,62.50
2022-12-24T16:44:37.918Z,51.22
2022-12-24T16:47:07.007Z,51.17
2022-12-24T16:49:36.617Z,52.17
2022-12-24T16:52:04.007Z,46.28
2022-12-24T16:54:31.089Z,46.00
2022-12-24T16:56:58.310Z,48.85
2022-12-24T16:59:25.765Z,56.40
2022-12-24T17:01:52.979Z,51.83
2022-12-24T17:04:22.633Z,50.92
2022-12-24T17:06:50.958Z,55.10
2022-12-24T17:09:18.161Z,49.42
2022-12-24T17:11:45.221Z,73.20
2022-12-24T17:14:19.840Z,60.20
2022-12-24T17:16:47.588Z,61.88
2022-12-24T17:19:14.779Z,65.65
2022-12-24T17:21:41.870Z,61.17
2022-12-24T17:24:10.157Z,63.92
2022-12-24T17:26:37.329Z,62.38
2022-12-24T17:29:06.279Z,63.92
2022-12-24T17:31:34.034Z,61.40
2022-12-24T17:34:01.298Z,59.25
2022-12-24T17:36:30.665Z,65.10
2022-12-24T17:38:57.874Z,63.63
2022-12-24T17:41:25.020Z,59.53
2022-12-24T17:43:52.138Z,56.83
2022-12-24T17:46:23.280Z,68.45
2022-12-24T17:48:51.164Z,66.68
2022-12-24T17:51:20.133Z,67.35
2022-12-24T17:53:47.628Z,79.28
2022-12-24T17:56:15.741Z,66.15
2022-12-24T17:58:43.702Z,63.90
2022-12-24T18:01:15.483Z,68.63
2022-12-24T18:03:42.959Z,64.90
2022-12-24T18:06:11.441Z,57.47
2022-12-24T18:08:40.197Z,56.78
2022-12-24T18:11:18.002Z,69.57
2022-12-24T18:13:45.402Z,67.10
2022-12-24T18:16:17.243Z,57.58
2022-12-24T18:18:44.529Z,56.63
2022-12-24T18:21:11.838Z,64.55
2022-12-24T18:23:41.199Z,52.20
2022-12-24T18:26:10.145Z,64.90
2022-12-24T18:28:37.245Z,54.13
2022-12-24T18:31:05.889Z,64.13
2022-12-24T18:33:33.422Z,50.88
2022-12-24T18:36:00.814Z,45.72
2022-12-24T18:38:28.017Z,52.72
2022-12-24T18:40:55.225Z,48.45
2022-12-24T18:43:22.430Z,51.78
2022-12-24T18:45:49.786Z,49.35
2022-12-24T18:48:16.980Z,46.17
2022-12-24T18:50:44.116Z,54.72
2022-12-24T18:53:11.716Z,48.50
2022-12-24T18:55:38.926Z,62.05
2022-12-24T18:58:06.210Z,67.32
2022-12-24T19:00:33.536Z,58.50
2022-12-24T19:03:00.782Z,69.97
2022-12-24T19:05:28.027Z,57.38
2022-12-24T19:07:55.194Z,65.55
2022-12-24T19:10:22.318Z,59.17
2022-12-24T19:12:49.591Z,64.95
2022-12-24T19:15:17.228Z,77.68
2022-12-24T19:17:45.843Z,85.57
2022-12-24T19:20:13.159Z,79.00
2022-12-24T19:22:40.230Z,79.57
2022-12-24T19:25:07.631Z,98.38
2022-12-24T19:27:34.776Z,79.15
2022-12-24T19:30:02.054Z,101.28
2022-12-24T19:32:29.159Z,113.60
2022-12-24T19:34:56.286Z,126.30
2022-12-24T19:37:23.511Z,124.63
2022-12-24T19:39:50.586Z,140.80
2022-12-24T19:42:17.684Z,132.20
2022-12-24T19:44:44.813Z,123.88
2022-12-24T19:47:11.927Z,129.00
2022-12-24T19:49:39.128Z,138.68
2022-12-24T19:52:06.202Z,110.15
2022-12-24T19:54:33.323Z,108.18
2022-12-24T19:57:00.388Z,114.47
2022-12-24T19:59:27.548Z,106.72
2022-12-24T20:01:54.912Z,86.25
2022-12-24T20:04:22.320Z,85.45
2022-12-24T20:06:51.304Z,77.53
2022-12-24T20:09:22.055Z,69.22
2022-12-24T20:11:52.253Z,75.70
2022-12-24T20:14:19.481Z,66.82
2022-12-24T20:16:46.610Z,65.18
2022-12-24T20:19:15.255Z,67.00
2022-12-24T20:21:42.402Z,66.93
2022-12-24T20:24:09.480Z,63.42
2022-12-24T20:26:36.767Z,57.83
2022-12-24T20:29:04.813Z,57.58
2022-12-24T20:31:32.327Z,59.35
2022-12-24T20:34:00.137Z,56.20
2022-12-24T20:36:28.366Z,60.88
2022-12-24T20:38:56.819Z,57.53
2022-12-24T20:41:24.691Z,54.83
2022-12-24T20:43:51.921Z,61.78
2022-12-24T20:46:20.068Z,64.40
2022-12-24T20:48:47.502Z,64.28
2022-12-24T20:51:22.890Z,61.20
2022-12-24T20:53:51.705Z,65.43
2022-12-24T20:56:18.882Z,59.40
2022-12-24T20:58:46.565Z,64.50
2022-12-24T21:01:20.042Z,58.25
2022-12-24T21:03:47.360Z,51.70
2022-12-24T21:06:15.874Z,45.10
2022-12-24T21:08:43.190Z,50.30
2022-12-24T21:11:28.740Z,48.20
2022-12-24T21:13:57.097Z,48.13
2022-12-24T21:16:24.304Z,40.42
2022-12-24T21:18:51.753Z,48.50
2022-12-24T21:21:18.982Z,46.78
2022-12-24T21:23:46.136Z,48.83
2022-12-24T21:26:13.260Z,52.13
2022-12-24T21:28:41.102Z,53.60
2022-12-24T21:31:10.439Z,47.92
2022-12-24T21:33:38.418Z,48.17
2022-12-24T21:36:06.348Z,41.80
2022-12-24T21:38:34.087Z,42.17
2022-12-24T21:41:01.294Z,38.42
2022-12-24T21:43:31.678Z,42.75
2022-12-24T21:45:59.129Z,35.53
2022-12-24T21:48:45.384Z,39.60
2022-12-24T21:53:58.000Z,37.30
2022-12-24T21:56:25.240Z,41.10
2022-12-24T21:58:52.376Z,39.30
2022-12-24T22:01:19.680Z,38.03
2022-12-24T22:03:50.178Z,42.47
2022-12-24T22:06:35.788Z,39.97
2022-12-24T22:09:22.028Z,35.38
2022-12-24T22:14:22.027Z,33.45
2022-12-24T22:16:49.195Z,38.05
2022-12-24T22:19:16.359Z,32.85
2022-12-24T22:21:43.502Z,36.20
2022-12-24T22:24:10.710Z,33.80
2022-12-24T22:26:37.881Z,33.72
2022-12-24T22:29:05.551Z,39.15
2022-12-24T22:31:37.452Z,37.42
2022-12-24T22:34:04.649Z,36.25
2022-12-24T22:36:31.768Z,38.30
2022-12-24T22:38:59.286Z,35.35
2022-12-24T22:41:27.311Z,35.78
2022-12-24T22:43:54.469Z,37.53
2022-12-24T22:46:23.491Z,42.90
2022-12-24T22:48:50.821Z,45.17
2022-12-24T22:51:19.430Z,43.53
2022-12-24T22:53:46.549Z,45.38
2022-12-24T22:56:16.275Z,42.47
2022-12-24T22:58:43.702Z,49.75
2022-12-24T23:01:10.952Z,54.05
2022-12-24T23:03:38.164Z,44.08
2022-12-24T23:06:07.252Z,39.88
2022-12-24T23:08:36.014Z,41.65
2022-12-24T23:11:07.490Z,38.67
2022-12-24T23:13:54.268Z,37.17
2022-12-24T23:16:21.521Z,42.03
2022-12-24T23:18:48.583Z,36.45
2022-12-24T23:21:15.817Z,39.92
2022-12-24T23:23:42.878Z,36.90
2022-12-24T23:26:11.887Z,34.35
2022-12-24T23:28:39.484Z,42.15
2022-12-24T23:31:07.454Z,35.95
2022-12-24T23:33:34.947Z,33.88
2022-12-24T23:36:02.428Z,38.50
2022-12-24T23:38:29.661Z,36.30
2022-12-24T23:40:57.573Z,34.20
2022-12-24T23:43:24.747Z,33.08
2022-12-24T23:45:52.551Z,29.77
2022-12-24T23:48:20.508Z,34.28
2022-12-24T23:50:48.060Z,36.80
2022-12-24T23:53:15.820Z,38.72
2022-12-24T23:55:43.441Z,28.95
2022-12-24T23:58:12.839Z,27.55
